Terminal Aerodrome Forecast
Issued by NWS Binghamton, NY

Home | Current Version | Previous Version | Text Only | Print | Product List | Glossary On
Versions: 1 2 3 4 5 6 7 8 9 10 11 12 13 14 15 16
943
FTUS41 KBGM 230903 AAA
TAFAVP
TAF AMD
KAVP 230903Z 2309/2406 VRB03KT 6SM BR FEW200
      TEMPO 2310/2313 2SM BR BKN008
     FM231500 22012G20KT P6SM BKN035
     FM240000 VRB03KT P6SM BKN040
     FM240300 VRB03KT P6SM BKN025=

USA.gov is the U.S. government's official web portal to all federal, state and local government web resources and services.